sensor_id;sensor_type;location;lat;lon;timestamp;P1;durP1;ratioP1;P2;durP2;ratioP2
73747;SDS011;62056;52.130;5.428;2023-03-14T00:00:18;13.25;;;2.58;;
73747;SDS011;62056;52.130;5.428;2023-03-14T00:02:45;10.45;;;3.30;;
73747;SDS011;62056;52.130;5.428;2023-03-14T00:05:11;12.65;;;2.33;;
73747;SDS011;62056;52.130;5.428;2023-03-14T00:07:38;9.70;;;3.00;;
73747;SDS011;62056;52.130;5.428;2023-03-14T00:10:07;10.27;;;2.47;;
73747;SDS011;62056;52.130;5.428;2023-03-14T00:12:36;7.72;;;2.42;;
73747;SDS011;62056;52.130;5.428;2023-03-14T00:15:02;7.60;;;2.33;;
73747;SDS011;62056;52.130;5.428;2023-03-14T00:17:30;9.55;;;2.28;;
73747;SDS011;62056;52.130;5.428;2023-03-14T00:19:57;13.70;;;2.97;;
73747;SDS011;62056;52.130;5.428;2023-03-14T00:22:30;9.43;;;2.60;;
73747;SDS011;62056;52.130;5.428;2023-03-14T00:24:57;6.88;;;1.73;;
73747;SDS011;62056;52.130;5.428;2023-03-14T00:27:24;11.55;;;2.25;;
73747;SDS011;62056;52.130;5.428;2023-03-14T00:29:51;9.02;;;2.65;;
73747;SDS011;62056;52.130;5.428;2023-03-14T00:32:17;13.63;;;3.80;;
73747;SDS011;62056;52.130;5.428;2023-03-14T00:34:44;12.73;;;2.60;;
73747;SDS011;62056;52.130;5.428;2023-03-14T00:37:10;9.05;;;2.25;;
73747;SDS011;62056;52.130;5.428;2023-03-14T00:39:37;7.07;;;1.98;;
73747;SDS011;62056;52.130;5.428;2023-03-14T00:42:04;13.35;;;2.17;;
73747;SDS011;62056;52.130;5.428;2023-03-14T00:44:30;12.32;;;1.65;;
73747;SDS011;62056;52.130;5.428;2023-03-14T00:46:58;11.70;;;1.37;;
73747;SDS011;62056;52.130;5.428;2023-03-14T00:49:24;9.07;;;1.38;;
73747;SDS011;62056;52.130;5.428;2023-03-14T00:51:51;9.15;;;1.65;;
73747;SDS011;62056;52.130;5.428;2023-03-14T00:54:18;6.25;;;1.38;;
73747;SDS011;62056;52.130;5.428;2023-03-14T00:56:45;8.95;;;1.23;;
73747;SDS011;62056;52.130;5.428;2023-03-14T00:59:12;11.27;;;3.20;;
73747;SDS011;62056;52.130;5.428;2023-03-14T01:01:39;12.55;;;2.22;;
73747;SDS011;62056;52.130;5.428;2023-03-14T01:04:06;13.02;;;2.85;;
73747;SDS011;62056;52.130;5.428;2023-03-14T01:06:32;9.77;;;3.92;;
73747;SDS011;62056;52.130;5.428;2023-03-14T01:08:59;11.77;;;1.83;;
73747;SDS011;62056;52.130;5.428;2023-03-14T01:11:28;9.43;;;4.50;;
73747;SDS011;62056;52.130;5.428;2023-03-14T01:13:59;7.93;;;2.65;;
73747;SDS011;62056;52.130;5.428;2023-03-14T01:16:28;11.15;;;4.35;;
73747;SDS011;62056;52.130;5.428;2023-03-14T01:18:56;7.95;;;2.50;;
73747;SDS011;62056;52.130;5.428;2023-03-14T01:21:24;7.63;;;2.13;;
73747;SDS011;62056;52.130;5.428;2023-03-14T01:23:53;11.13;;;3.60;;
73747;SDS011;62056;52.130;5.428;2023-03-14T01:26:21;10.13;;;2.97;;
73747;SDS011;62056;52.130;5.428;2023-03-14T01:28:51;12.52;;;3.50;;
73747;SDS011;62056;52.130;5.428;2023-03-14T01:31:19;10.38;;;2.95;;
73747;SDS011;62056;52.130;5.428;2023-03-14T01:33:46;3.80;;;1.30;;
73747;SDS011;62056;52.130;5.428;2023-03-14T01:36:13;7.93;;;1.40;;
73747;SDS011;62056;52.130;5.428;2023-03-14T01:38:41;4.72;;;1.40;;
73747;SDS011;62056;52.130;5.428;2023-03-14T01:41:09;3.53;;;1.63;;
73747;SDS011;62056;52.130;5.428;2023-03-14T01:43:40;6.13;;;1.23;;
73747;SDS011;62056;52.130;5.428;2023-03-14T01:48:41;4.50;;;1.83;;
73747;SDS011;62056;52.130;5.428;2023-03-14T01:51:12;11.20;;;3.13;;
73747;SDS011;62056;52.130;5.428;2023-03-14T01:53:44;6.22;;;2.20;;
73747;SDS011;62056;52.130;5.428;2023-03-14T01:56:11;5.35;;;2.85;;
73747;SDS011;62056;52.130;5.428;2023-03-14T01:58:41;6.43;;;2.72;;
73747;SDS011;62056;52.130;5.428;2023-03-14T02:01:13;6.17;;;1.80;;
73747;SDS011;62056;52.130;5.428;2023-03-14T02:03:47;3.95;;;1.40;;
73747;SDS011;62056;52.130;5.428;2023-03-14T02:06:19;7.75;;;2.10;;
73747;SDS011;62056;52.130;5.428;2023-03-14T02:08:51;7.88;;;0.93;;
73747;SDS011;62056;52.130;5.428;2023-03-14T02:11:18;5.22;;;0.70;;
73747;SDS011;62056;52.130;5.428;2023-03-14T02:13:45;5.53;;;1.17;;
73747;SDS011;62056;52.130;5.428;2023-03-14T02:16:12;9.50;;;1.27;;
73747;SDS011;62056;52.130;5.428;2023-03-14T02:18:38;5.25;;;1.13;;
73747;SDS011;62056;52.130;5.428;2023-03-14T02:26:40;7.13;;;3.43;;
73747;SDS011;62056;52.130;5.428;2023-03-14T02:29:11;4.93;;;2.50;;
73747;SDS011;62056;52.130;5.428;2023-03-14T02:31:38;9.20;;;4.03;;
73747;SDS011;62056;52.130;5.428;2023-03-14T02:34:05;9.55;;;5.05;;
73747;SDS011;62056;52.130;5.428;2023-03-14T02:36:32;11.38;;;4.35;;
73747;SDS011;62056;52.130;5.428;2023-03-14T02:39:06;8.37;;;6.13;;
73747;SDS011;62056;52.130;5.428;2023-03-14T02:41:40;15.90;;;7.95;;
73747;SDS011;62056;52.130;5.428;2023-03-14T02:44:08;11.13;;;5.35;;
73747;SDS011;62056;52.130;5.428;2023-03-14T02:46:35;14.27;;;8.60;;
73747;SDS011;62056;52.130;5.428;2023-03-14T02:49:02;12.50;;;8.07;;
73747;SDS011;62056;52.130;5.428;2023-03-14T02:51:31;13.03;;;8.10;;
73747;SDS011;62056;52.130;5.428;2023-03-14T02:53:58;17.02;;;11.93;;
73747;SDS011;62056;52.130;5.428;2023-03-14T02:56:25;11.23;;;6.75;;
73747;SDS011;62056;52.130;5.428;2023-03-14T02:58:52;9.48;;;6.65;;
73747;SDS011;62056;52.130;5.428;2023-03-14T03:01:18;7.50;;;3.83;;
73747;SDS011;62056;52.130;5.428;2023-03-14T03:03:45;9.97;;;3.77;;
73747;SDS011;62056;52.130;5.428;2023-03-14T03:06:11;5.18;;;2.30;;
73747;SDS011;62056;52.130;5.428;2023-03-14T03:08:38;8.13;;;1.80;;
73747;SDS011;62056;52.130;5.428;2023-03-14T03:11:05;3.15;;;1.70;;
73747;SDS011;62056;52.130;5.428;2023-03-14T03:13:32;5.22;;;1.30;;
73747;SDS011;62056;52.130;5.428;2023-03-14T03:15:59;3.60;;;1.27;;
73747;SDS011;62056;52.130;5.428;2023-03-14T03:18:25;4.45;;;1.15;;
73747;SDS011;62056;52.130;5.428;2023-03-14T03:20:52;4.43;;;1.83;;
73747;SDS011;62056;52.130;5.428;2023-03-14T03:23:19;5.55;;;2.70;;
73747;SDS011;62056;52.130;5.428;2023-03-14T03:25:49;10.55;;;7.03;;
73747;SDS011;62056;52.130;5.428;2023-03-14T03:28:17;9.10;;;3.97;;
73747;SDS011;62056;52.130;5.428;2023-03-14T03:30:44;12.15;;;9.50;;
73747;SDS011;62056;52.130;5.428;2023-03-14T03:33:11;12.75;;;3.70;;
73747;SDS011;62056;52.130;5.428;2023-03-14T03:35:42;12.80;;;6.25;;
73747;SDS011;62056;52.130;5.428;2023-03-14T03:38:10;5.75;;;2.47;;
73747;SDS011;62056;52.130;5.428;2023-03-14T03:40:38;21.93;;;14.33;;
73747;SDS011;62056;52.130;5.428;2023-03-14T03:43:04;9.80;;;3.65;;
73747;SDS011;62056;52.130;5.428;2023-03-14T03:45:31;9.45;;;6.60;;
73747;SDS011;62056;52.130;5.428;2023-03-14T03:47:58;10.68;;;3.42;;
73747;SDS011;62056;52.130;5.428;2023-03-14T03:50:24;7.15;;;4.22;;
73747;SDS011;62056;52.130;5.428;2023-03-14T03:52:51;7.50;;;2.33;;
73747;SDS011;62056;52.130;5.428;2023-03-14T03:55:17;5.57;;;2.33;;
73747;SDS011;62056;52.130;5.428;2023-03-14T03:57:44;6.88;;;2.65;;
73747;SDS011;62056;52.130;5.428;2023-03-14T04:00:11;7.18;;;2.17;;
73747;SDS011;62056;52.130;5.428;2023-03-14T04:02:38;10.77;;;2.33;;
73747;SDS011;62056;52.130;5.428;2023-03-14T04:05:05;6.03;;;2.20;;
73747;SDS011;62056;52.130;5.428;2023-03-14T04:07:32;7.20;;;2.88;;
73747;SDS011;62056;52.130;5.428;2023-03-14T04:09:59;8.02;;;2.03;;
73747;SDS011;62056;52.130;5.428;2023-03-14T04:12:26;10.45;;;3.65;;
73747;SDS011;62056;52.130;5.428;2023-03-14T04:14:52;10.20;;;2.97;;
73747;SDS011;62056;52.130;5.428;2023-03-14T04:17:19;5.93;;;3.40;;
73747;SDS011;62056;52.130;5.428;2023-03-14T04:19:47;8.52;;;2.70;;
73747;SDS011;62056;52.130;5.428;2023-03-14T04:22:17;6.38;;;2.10;;
73747;SDS011;62056;52.130;5.428;2023-03-14T04:24:44;8.30;;;2.65;;
73747;SDS011;62056;52.130;5.428;2023-03-14T04:27:10;7.30;;;1.88;;
73747;SDS011;62056;52.130;5.428;2023-03-14T04:29:37;6.00;;;1.50;;
73747;SDS011;62056;52.130;5.428;2023-03-14T04:32:04;7.22;;;2.28;;
73747;SDS011;62056;52.130;5.428;2023-03-14T04:34:30;7.85;;;2.78;;
73747;SDS011;62056;52.130;5.428;2023-03-14T04:36:57;14.45;;;3.40;;
73747;SDS011;62056;52.130;5.428;2023-03-14T04:39:24;7.53;;;2.72;;
73747;SDS011;62056;52.130;5.428;2023-03-14T04:41:50;5.83;;;2.90;;
73747;SDS011;62056;52.130;5.428;2023-03-14T04:44:17;6.60;;;1.90;;
73747;SDS011;62056;52.130;5.428;2023-03-14T04:46:43;5.43;;;1.45;;
73747;SDS011;62056;52.130;5.428;2023-03-14T04:49:10;4.75;;;1.27;;
73747;SDS011;62056;52.130;5.428;2023-03-14T04:51:37;8.75;;;1.90;;
73747;SDS011;62056;52.130;5.428;2023-03-14T04:54:03;7.37;;;1.20;;
73747;SDS011;62056;52.130;5.428;2023-03-14T04:56:30;6.88;;;1.13;;
73747;SDS011;62056;52.130;5.428;2023-03-14T04:58:57;5.10;;;1.15;;
73747;SDS011;62056;52.130;5.428;2023-03-14T05:01:23;4.88;;;1.35;;
73747;SDS011;62056;52.130;5.428;2023-03-14T05:03:50;6.95;;;1.67;;
73747;SDS011;62056;52.130;5.428;2023-03-14T05:06:17;6.53;;;3.37;;
73747;SDS011;62056;52.130;5.428;2023-03-14T05:08:43;5.22;;;2.38;;
73747;SDS011;62056;52.130;5.428;2023-03-14T05:11:11;4.28;;;2.17;;
73747;SDS011;62056;52.130;5.428;2023-03-14T05:13:39;4.15;;;1.75;;
73747;SDS011;62056;52.130;5.428;2023-03-14T05:16:06;3.67;;;1.42;;
73747;SDS011;62056;52.130;5.428;2023-03-14T05:18:35;3.50;;;1.27;;
73747;SDS011;62056;52.130;5.428;2023-03-14T05:21:02;10.05;;;2.00;;
73747;SDS011;62056;52.130;5.428;2023-03-14T05:23:30;5.85;;;1.67;;
73747;SDS011;62056;52.130;5.428;2023-03-14T05:25:56;7.68;;;1.75;;
73747;SDS011;62056;52.130;5.428;2023-03-14T05:28:24;6.68;;;2.17;;
73747;SDS011;62056;52.130;5.428;2023-03-14T05:30:50;3.63;;;1.60;;
73747;SDS011;62056;52.130;5.428;2023-03-14T05:33:17;5.72;;;2.03;;
73747;SDS011;62056;52.130;5.428;2023-03-14T05:35:43;6.47;;;1.33;;
73747;SDS011;62056;52.130;5.428;2023-03-14T05:38:10;3.20;;;1.27;;
73747;SDS011;62056;52.130;5.428;2023-03-14T05:40:37;5.22;;;1.70;;
73747;SDS011;62056;52.130;5.428;2023-03-14T05:43:03;1.97;;;0.87;;
73747;SDS011;62056;52.130;5.428;2023-03-14T05:45:30;5.30;;;1.05;;
73747;SDS011;62056;52.130;5.428;2023-03-14T05:47:59;3.95;;;1.20;;
73747;SDS011;62056;52.130;5.428;2023-03-14T05:50:26;7.43;;;0.90;;
73747;SDS011;62056;52.130;5.428;2023-03-14T05:52:53;5.80;;;1.75;;
73747;SDS011;62056;52.130;5.428;2023-03-14T05:55:19;1.97;;;1.00;;
73747;SDS011;62056;52.130;5.428;2023-03-14T05:57:46;5.05;;;1.17;;
73747;SDS011;62056;52.130;5.428;2023-03-14T06:00:13;3.35;;;1.50;;
73747;SDS011;62056;52.130;5.428;2023-03-14T06:02:39;3.53;;;1.33;;
73747;SDS011;62056;52.130;5.428;2023-03-14T06:05:06;5.22;;;3.80;;
73747;SDS011;62056;52.130;5.428;2023-03-14T06:07:33;5.33;;;1.83;;
73747;SDS011;62056;52.130;5.428;2023-03-14T06:10:00;4.43;;;2.35;;
73747;SDS011;62056;52.130;5.428;2023-03-14T06:12:27;7.10;;;2.60;;
73747;SDS011;62056;52.130;5.428;2023-03-14T06:14:54;6.45;;;2.05;;
73747;SDS011;62056;52.130;5.428;2023-03-14T06:17:21;6.35;;;2.28;;
73747;SDS011;62056;52.130;5.428;2023-03-14T06:19:47;7.43;;;6.20;;
73747;SDS011;62056;52.130;5.428;2023-03-14T06:22:14;5.03;;;2.50;;
73747;SDS011;62056;52.130;5.428;2023-03-14T06:24:40;5.70;;;2.90;;
73747;SDS011;62056;52.130;5.428;2023-03-14T06:27:07;3.72;;;2.13;;
73747;SDS011;62056;52.130;5.428;2023-03-14T06:29:34;2.60;;;2.05;;
73747;SDS011;62056;52.130;5.428;2023-03-14T06:32:00;6.00;;;2.30;;
73747;SDS011;62056;52.130;5.428;2023-03-14T06:34:27;6.13;;;2.63;;
73747;SDS011;62056;52.130;5.428;2023-03-14T06:36:53;3.60;;;1.83;;
73747;SDS011;62056;52.130;5.428;2023-03-14T06:39:20;6.85;;;2.05;;
73747;SDS011;62056;52.130;5.428;2023-03-14T06:41:46;8.45;;;2.53;;
73747;SDS011;62056;52.130;5.428;2023-03-14T06:44:13;4.30;;;2.17;;
73747;SDS011;62056;52.130;5.428;2023-03-14T06:46:39;3.33;;;2.03;;
73747;SDS011;62056;52.130;5.428;2023-03-14T06:49:06;5.68;;;1.80;;
73747;SDS011;62056;52.130;5.428;2023-03-14T06:51:33;2.50;;;0.70;;
73747;SDS011;62056;52.130;5.428;2023-03-14T06:54:00;3.90;;;0.65;;
73747;SDS011;62056;52.130;5.428;2023-03-14T06:56:27;2.47;;;0.30;;
73747;SDS011;62056;52.130;5.428;2023-03-14T06:58:54;0.55;;;0.30;;
73747;SDS011;62056;52.130;5.428;2023-03-14T07:01:23;1.98;;;0.57;;
73747;SDS011;62056;52.130;5.428;2023-03-14T07:03:51;2.40;;;0.20;;
73747;SDS011;62056;52.130;5.428;2023-03-14T07:06:18;1.00;;;0.30;;
73747;SDS011;62056;52.130;5.428;2023-03-14T07:08:45;0.90;;;0.23;;
73747;SDS011;62056;52.130;5.428;2023-03-14T07:11:12;3.35;;;0.30;;
73747;SDS011;62056;52.130;5.428;2023-03-14T07:13:39;0.93;;;0.30;;
73747;SDS011;62056;52.130;5.428;2023-03-14T07:16:06;2.35;;;0.20;;
73747;SDS011;62056;52.130;5.428;2023-03-14T07:18:33;1.48;;;0.30;;
73747;SDS011;62056;52.130;5.428;2023-03-14T07:21:00;0.60;;;0.40;;
73747;SDS011;62056;52.130;5.428;2023-03-14T07:23:26;1.73;;;0.20;;
73747;SDS011;62056;52.130;5.428;2023-03-14T07:25:53;3.53;;;0.20;;
73747;SDS011;62056;52.130;5.428;2023-03-14T07:28:20;0.80;;;0.30;;
73747;SDS011;62056;52.130;5.428;2023-03-14T07:30:47;1.85;;;0.30;;
73747;SDS011;62056;52.130;5.428;2023-03-14T07:33:14;0.80;;;0.40;;
73747;SDS011;62056;52.130;5.428;2023-03-14T07:35:41;1.40;;;0.40;;
73747;SDS011;62056;52.130;5.428;2023-03-14T07:38:07;1.00;;;0.30;;
73747;SDS011;62056;52.130;5.428;2023-03-14T07:40:34;1.02;;;0.25;;
73747;SDS011;62056;52.130;5.428;2023-03-14T07:43:01;3.38;;;0.60;;
73747;SDS011;62056;52.130;5.428;2023-03-14T07:45:27;3.00;;;0.27;;
73747;SDS011;62056;52.130;5.428;2023-03-14T07:47:54;1.52;;;0.30;;
73747;SDS011;62056;52.130;5.428;2023-03-14T07:50:24;1.00;;;0.30;;
73747;SDS011;62056;52.130;5.428;2023-03-14T07:52:51;2.15;;;0.30;;
73747;SDS011;62056;52.130;5.428;2023-03-14T07:55:18;1.95;;;0.50;;
73747;SDS011;62056;52.130;5.428;2023-03-14T07:57:45;0.63;;;0.20;;
73747;SDS011;62056;52.130;5.428;2023-03-14T08:00:12;1.15;;;0.20;;
73747;SDS011;62056;52.130;5.428;2023-03-14T08:02:41;1.17;;;0.20;;
73747;SDS011;62056;52.130;5.428;2023-03-14T08:05:08;1.00;;;0.28;;
73747;SDS011;62056;52.130;5.428;2023-03-14T08:07:35;2.10;;;0.40;;
73747;SDS011;62056;52.130;5.428;2023-03-14T08:10:03;6.50;;;0.30;;
73747;SDS011;62056;52.130;5.428;2023-03-14T08:12:30;5.50;;;0.35;;
73747;SDS011;62056;52.130;5.428;2023-03-14T08:14:57;5.07;;;0.40;;
73747;SDS011;62056;52.130;5.428;2023-03-14T08:17:25;2.15;;;0.22;;
73747;SDS011;62056;52.130;5.428;2023-03-14T08:19:54;2.83;;;0.38;;
73747;SDS011;62056;52.130;5.428;2023-03-14T08:22:21;6.63;;;0.53;;
73747;SDS011;62056;52.130;5.428;2023-03-14T08:25:21;3.20;;;0.40;;
73747;SDS011;62056;52.130;5.428;2023-03-14T08:27:48;1.90;;;0.40;;
73747;SDS011;62056;52.130;5.428;2023-03-14T08:30:15;0.75;;;0.30;;
73747;SDS011;62056;52.130;5.428;2023-03-14T08:32:43;0.98;;;0.40;;
73747;SDS011;62056;52.130;5.428;2023-03-14T08:35:10;2.03;;;0.20;;
73747;SDS011;62056;52.130;5.428;2023-03-14T08:37:38;2.25;;;0.30;;
73747;SDS011;62056;52.130;5.428;2023-03-14T08:40:05;2.17;;;0.30;;
73747;SDS011;62056;52.130;5.428;2023-03-14T08:42:33;2.83;;;0.30;;
73747;SDS011;62056;52.130;5.428;2023-03-14T08:45:00;2.58;;;0.30;;
73747;SDS011;62056;52.130;5.428;2023-03-14T08:47:26;4.60;;;0.30;;
73747;SDS011;62056;52.130;5.428;2023-03-14T08:49:53;2.85;;;0.28;;
73747;SDS011;62056;52.130;5.428;2023-03-14T08:52:20;4.18;;;0.30;;
73747;SDS011;62056;52.130;5.428;2023-03-14T08:54:47;2.45;;;0.47;;
73747;SDS011;62056;52.130;5.428;2023-03-14T08:57:14;2.45;;;0.30;;
73747;SDS011;62056;52.130;5.428;2023-03-14T08:59:42;3.20;;;0.87;;
73747;SDS011;62056;52.130;5.428;2023-03-14T09:02:10;3.38;;;0.50;;
73747;SDS011;62056;52.130;5.428;2023-03-14T09:04:38;4.32;;;0.47;;
73747;SDS011;62056;52.130;5.428;2023-03-14T09:07:08;3.17;;;0.32;;
73747;SDS011;62056;52.130;5.428;2023-03-14T09:09:40;4.68;;;0.55;;
73747;SDS011;62056;52.130;5.428;2023-03-14T09:12:30;2.40;;;0.30;;
73747;SDS011;62056;52.130;5.428;2023-03-14T09:14:57;4.13;;;0.35;;
73747;SDS011;62056;52.130;5.428;2023-03-14T09:17:24;2.53;;;0.40;;
73747;SDS011;62056;52.130;5.428;2023-03-14T09:19:50;11.25;;;0.52;;
73747;SDS011;62056;52.130;5.428;2023-03-14T09:22:17;6.05;;;0.65;;
73747;SDS011;62056;52.130;5.428;2023-03-14T09:24:44;2.43;;;0.30;;
73747;SDS011;62056;52.130;5.428;2023-03-14T09:27:10;5.38;;;0.82;;
73747;SDS011;62056;52.130;5.428;2023-03-14T09:29:37;11.35;;;1.15;;
73747;SDS011;62056;52.130;5.428;2023-03-14T09:32:03;5.75;;;0.95;;
73747;SDS011;62056;52.130;5.428;2023-03-14T09:34:30;9.05;;;0.88;;
73747;SDS011;62056;52.130;5.428;2023-03-14T09:36:57;4.37;;;1.17;;
73747;SDS011;62056;52.130;5.428;2023-03-14T09:39:24;9.85;;;1.00;;
73747;SDS011;62056;52.130;5.428;2023-03-14T09:41:51;7.50;;;1.08;;
73747;SDS011;62056;52.130;5.428;2023-03-14T09:44:31;4.18;;;0.73;;
73747;SDS011;62056;52.130;5.428;2023-03-14T09:47:03;9.23;;;0.90;;
73747;SDS011;62056;52.130;5.428;2023-03-14T09:49:41;7.23;;;0.90;;
73747;SDS011;62056;52.130;5.428;2023-03-14T09:52:13;5.47;;;0.80;;
73747;SDS011;62056;52.130;5.428;2023-03-14T09:54:50;12.48;;;1.15;;
73747;SDS011;62056;52.130;5.428;2023-03-14T09:57:21;14.57;;;1.45;;
73747;SDS011;62056;52.130;5.428;2023-03-14T09:59:51;6.22;;;1.13;;
73747;SDS011;62056;52.130;5.428;2023-03-14T10:02:24;5.53;;;0.77;;
73747;SDS011;62056;52.130;5.428;2023-03-14T10:04:55;9.23;;;1.15;;
73747;SDS011;62056;52.130;5.428;2023-03-14T10:07:25;6.63;;;1.00;;
73747;SDS011;62056;52.130;5.428;2023-03-14T10:09:55;6.35;;;1.10;;
73747;SDS011;62056;52.130;5.428;2023-03-14T10:12:32;7.07;;;0.95;;
73747;SDS011;62056;52.130;5.428;2023-03-14T10:15:08;10.60;;;0.80;;
73747;SDS011;62056;52.130;5.428;2023-03-14T10:17:42;7.18;;;0.90;;
73747;SDS011;62056;52.130;5.428;2023-03-14T10:20:25;8.13;;;0.82;;
73747;SDS011;62056;52.130;5.428;2023-03-14T10:23:00;8.60;;;0.80;;
73747;SDS011;62056;52.130;5.428;2023-03-14T10:25:31;8.48;;;0.88;;
73747;SDS011;62056;52.130;5.428;2023-03-14T10:28:00;4.40;;;0.70;;
73747;SDS011;62056;52.130;5.428;2023-03-14T10:33:08;8.25;;;1.48;;
73747;SDS011;62056;52.130;5.428;2023-03-14T10:35:46;8.35;;;1.35;;
73747;SDS011;62056;52.130;5.428;2023-03-14T10:38:20;8.25;;;1.23;;
73747;SDS011;62056;52.130;5.428;2023-03-14T10:40:51;11.10;;;1.80;;
73747;SDS011;62056;52.130;5.428;2023-03-14T10:43:22;3.78;;;0.88;;
73747;SDS011;62056;52.130;5.428;2023-03-14T10:53:45;6.00;;;0.83;;
73747;SDS011;62056;52.130;5.428;2023-03-14T10:56:24;19.73;;;2.13;;
73747;SDS011;62056;52.130;5.428;2023-03-14T10:58:54;14.27;;;1.50;;
73747;SDS011;62056;52.130;5.428;2023-03-14T11:06:39;6.50;;;1.33;;
73747;SDS011;62056;52.130;5.428;2023-03-14T11:09:13;7.00;;;0.95;;
73747;SDS011;62056;52.130;5.428;2023-03-14T11:11:49;11.85;;;1.40;;
73747;SDS011;62056;52.130;5.428;2023-03-14T11:16:55;6.63;;;1.02;;
73747;SDS011;62056;52.130;5.428;2023-03-14T11:19:36;5.30;;;0.70;;
73747;SDS011;62056;52.130;5.428;2023-03-14T11:28:00;9.05;;;1.35;;
73747;SDS011;62056;52.130;5.428;2023-03-14T11:30:48;5.70;;;1.27;;
73747;SDS011;62056;52.130;5.428;2023-03-14T11:38:43;9.88;;;0.60;;
73747;SDS011;62056;52.130;5.428;2023-03-14T11:41:16;7.93;;;1.00;;
73747;SDS011;62056;52.130;5.428;2023-03-14T11:43:48;6.65;;;0.80;;
73747;SDS011;62056;52.130;5.428;2023-03-14T11:46:23;7.20;;;1.13;;
73747;SDS011;62056;52.130;5.428;2023-03-14T11:51:41;3.67;;;0.68;;
73747;SDS011;62056;52.130;5.428;2023-03-14T11:54:20;5.70;;;0.40;;
73747;SDS011;62056;52.130;5.428;2023-03-14T11:56:59;4.07;;;0.98;;
73747;SDS011;62056;52.130;5.428;2023-03-14T11:59:46;8.97;;;0.43;;
73747;SDS011;62056;52.130;5.428;2023-03-14T12:10:39;2.42;;;0.45;;
73747;SDS011;62056;52.130;5.428;2023-03-14T12:13:11;5.73;;;1.00;;
73747;SDS011;62056;52.130;5.428;2023-03-14T12:15:41;3.80;;;0.43;;
73747;SDS011;62056;52.130;5.428;2023-03-14T12:18:21;9.07;;;0.50;;
73747;SDS011;62056;52.130;5.428;2023-03-14T12:21:01;4.22;;;0.40;;
73747;SDS011;62056;52.130;5.428;2023-03-14T12:28:38;5.53;;;0.47;;
73747;SDS011;62056;52.130;5.428;2023-03-14T12:34:24;4.47;;;0.70;;
73747;SDS011;62056;52.130;5.428;2023-03-14T12:39:50;9.80;;;0.80;;
73747;SDS011;62056;52.130;5.428;2023-03-14T12:45:27;5.72;;;0.70;;
73747;SDS011;62056;52.130;5.428;2023-03-14T12:48:09;5.85;;;0.77;;
73747;SDS011;62056;52.130;5.428;2023-03-14T12:55:49;8.88;;;0.80;;
73747;SDS011;62056;52.130;5.428;2023-03-14T13:01:18;5.75;;;0.85;;
73747;SDS011;62056;52.130;5.428;2023-03-14T13:03:47;2.75;;;0.45;;
73747;SDS011;62056;52.130;5.428;2023-03-14T13:11:56;3.90;;;0.90;;
73747;SDS011;62056;52.130;5.428;2023-03-14T13:14:27;2.10;;;0.60;;
73747;SDS011;62056;52.130;5.428;2023-03-14T13:17:00;2.45;;;0.40;;
73747;SDS011;62056;52.130;5.428;2023-03-14T13:19:53;2.53;;;0.77;;
73747;SDS011;62056;52.130;5.428;2023-03-14T13:22:26;4.72;;;0.40;;
73747;SDS011;62056;52.130;5.428;2023-03-14T13:25:04;2.95;;;0.30;;
73747;SDS011;62056;52.130;5.428;2023-03-14T13:27:34;2.65;;;0.50;;
73747;SDS011;62056;52.130;5.428;2023-03-14T13:30:18;3.60;;;0.43;;
73747;SDS011;62056;52.130;5.428;2023-03-14T13:32:47;6.10;;;0.70;;
73747;SDS011;62056;52.130;5.428;2023-03-14T13:35:16;3.28;;;0.50;;
73747;SDS011;62056;52.130;5.428;2023-03-14T13:37:47;0.90;;;0.40;;
73747;SDS011;62056;52.130;5.428;2023-03-14T13:40:33;3.00;;;0.40;;
73747;SDS011;62056;52.130;5.428;2023-03-14T13:43:05;7.40;;;0.40;;
73747;SDS011;62056;52.130;5.428;2023-03-14T13:45:50;8.63;;;0.40;;
73747;SDS011;62056;52.130;5.428;2023-03-14T13:48:21;2.58;;;0.40;;
73747;SDS011;62056;52.130;5.428;2023-03-14T13:50:53;4.00;;;0.70;;
73747;SDS011;62056;52.130;5.428;2023-03-14T13:53:22;3.97;;;0.45;;
73747;SDS011;62056;52.130;5.428;2023-03-14T13:55:50;4.50;;;0.50;;
73747;SDS011;62056;52.130;5.428;2023-03-14T14:00:55;7.97;;;0.68;;
73747;SDS011;62056;52.130;5.428;2023-03-14T14:03:25;2.97;;;0.47;;
73747;SDS011;62056;52.130;5.428;2023-03-14T14:05:54;7.30;;;0.80;;
73747;SDS011;62056;52.130;5.428;2023-03-14T14:08:23;10.23;;;0.82;;
73747;SDS011;62056;52.130;5.428;2023-03-14T14:10:50;4.30;;;0.60;;
73747;SDS011;62056;52.130;5.428;2023-03-14T14:13:23;4.18;;;0.50;;
73747;SDS011;62056;52.130;5.428;2023-03-14T14:15:52;12.18;;;0.52;;
73747;SDS011;62056;52.130;5.428;2023-03-14T14:18:21;8.00;;;0.90;;
73747;SDS011;62056;52.130;5.428;2023-03-14T14:20:52;7.00;;;0.40;;
73747;SDS011;62056;52.130;5.428;2023-03-14T14:23:22;7.17;;;0.40;;
73747;SDS011;62056;52.130;5.428;2023-03-14T14:25:55;6.97;;;1.20;;
73747;SDS011;62056;52.130;5.428;2023-03-14T14:33:42;9.10;;;0.47;;
73747;SDS011;62056;52.130;5.428;2023-03-14T14:36:36;2.83;;;0.47;;
73747;SDS011;62056;52.130;5.428;2023-03-14T14:41:32;3.10;;;0.50;;
73747;SDS011;62056;52.130;5.428;2023-03-14T14:44:02;1.88;;;0.52;;
73747;SDS011;62056;52.130;5.428;2023-03-14T14:46:30;2.97;;;0.40;;
73747;SDS011;62056;52.130;5.428;2023-03-14T14:49:05;6.00;;;0.57;;
73747;SDS011;62056;52.130;5.428;2023-03-14T14:51:42;2.22;;;0.35;;
73747;SDS011;62056;52.130;5.428;2023-03-14T14:54:16;5.53;;;0.45;;
73747;SDS011;62056;52.130;5.428;2023-03-14T14:56:51;2.35;;;0.32;;
73747;SDS011;62056;52.130;5.428;2023-03-14T14:59:24;4.07;;;0.70;;
73747;SDS011;62056;52.130;5.428;2023-03-14T15:02:00;3.30;;;0.40;;
73747;SDS011;62056;52.130;5.428;2023-03-14T15:04:31;3.83;;;0.70;;
73747;SDS011;62056;52.130;5.428;2023-03-14T15:06:58;2.90;;;0.68;;
73747;SDS011;62056;52.130;5.428;2023-03-14T15:09:24;8.65;;;0.50;;
73747;SDS011;62056;52.130;5.428;2023-03-14T15:11:51;7.20;;;0.65;;
73747;SDS011;62056;52.130;5.428;2023-03-14T15:14:18;7.87;;;0.73;;
73747;SDS011;62056;52.130;5.428;2023-03-14T15:16:45;2.45;;;0.82;;
73747;SDS011;62056;52.130;5.428;2023-03-14T15:19:14;2.08;;;0.40;;
73747;SDS011;62056;52.130;5.428;2023-03-14T15:21:50;2.25;;;0.45;;
73747;SDS011;62056;52.130;5.428;2023-03-14T15:24:20;9.63;;;1.20;;
73747;SDS011;62056;52.130;5.428;2023-03-14T15:26:48;6.80;;;0.97;;
73747;SDS011;62056;52.130;5.428;2023-03-14T15:29:15;7.43;;;0.55;;
73747;SDS011;62056;52.130;5.428;2023-03-14T15:31:42;1.38;;;0.30;;
73747;SDS011;62056;52.130;5.428;2023-03-14T15:34:10;3.05;;;0.50;;
73747;SDS011;62056;52.130;5.428;2023-03-14T15:36:37;3.92;;;0.55;;
73747;SDS011;62056;52.130;5.428;2023-03-14T15:39:05;4.03;;;0.50;;
73747;SDS011;62056;52.130;5.428;2023-03-14T15:41:33;4.22;;;0.75;;
73747;SDS011;62056;52.130;5.428;2023-03-14T15:44:00;4.07;;;0.50;;
73747;SDS011;62056;52.130;5.428;2023-03-14T15:46:27;5.45;;;0.50;;
73747;SDS011;62056;52.130;5.428;2023-03-14T15:48:56;2.65;;;0.80;;
73747;SDS011;62056;52.130;5.428;2023-03-14T15:51:23;1.90;;;0.80;;
73747;SDS011;62056;52.130;5.428;2023-03-14T15:53:50;2.80;;;0.30;;
73747;SDS011;62056;52.130;5.428;2023-03-14T15:56:20;2.20;;;0.50;;
73747;SDS011;62056;52.130;5.428;2023-03-14T15:58:50;2.30;;;0.63;;
73747;SDS011;62056;52.130;5.428;2023-03-14T16:01:17;2.25;;;0.70;;
73747;SDS011;62056;52.130;5.428;2023-03-14T16:03:44;3.43;;;0.37;;
73747;SDS011;62056;52.130;5.428;2023-03-14T16:06:12;2.03;;;0.40;;
73747;SDS011;62056;52.130;5.428;2023-03-14T16:08:39;4.60;;;0.50;;
73747;SDS011;62056;52.130;5.428;2023-03-14T16:11:06;3.33;;;0.32;;
73747;SDS011;62056;52.130;5.428;2023-03-14T16:13:32;5.22;;;0.70;;
73747;SDS011;62056;52.130;5.428;2023-03-14T16:16:00;1.33;;;0.50;;
73747;SDS011;62056;52.130;5.428;2023-03-14T16:18:29;5.70;;;0.90;;
73747;SDS011;62056;52.130;5.428;2023-03-14T16:20:59;3.47;;;0.68;;
73747;SDS011;62056;52.130;5.428;2023-03-14T16:23:32;3.10;;;0.40;;